sensor_id;sensor_type;location;lat;lon;timestamp;P1;durP1;ratioP1;P2;durP2;ratioP2
13999;SDS011;7075;53.574;10.054;2022-10-31T00:03:45;18.80;;;14.38;;
13999;SDS011;7075;53.574;10.054;2022-10-31T00:06:10;16.40;;;14.40;;
13999;SDS011;7075;53.574;10.054;2022-10-31T00:08:36;17.33;;;14.13;;
13999;SDS011;7075;53.574;10.054;2022-10-31T00:11:02;16.83;;;14.27;;
13999;SDS011;7075;53.574;10.054;2022-10-31T00:13:28;20.20;;;14.73;;
13999;SDS011;7075;53.574;10.054;2022-10-31T00:15:53;18.80;;;14.65;;
13999;SDS011;7075;53.574;10.054;2022-10-31T00:18:19;15.63;;;13.97;;
13999;SDS011;7075;53.574;10.054;2022-10-31T00:20:44;15.50;;;13.80;;
13999;SDS011;7075;53.574;10.054;2022-10-31T00:23:10;15.85;;;13.95;;
13999;SDS011;7075;53.574;10.054;2022-10-31T00:25:37;14.67;;;13.17;;
13999;SDS011;7075;53.574;10.054;2022-10-31T00:28:04;17.50;;;13.30;;
13999;SDS011;7075;53.574;10.054;2022-10-31T00:30:31;16.52;;;13.88;;
13999;SDS011;7075;53.574;10.054;2022-10-31T00:32:57;14.83;;;13.33;;
13999;SDS011;7075;53.574;10.054;2022-10-31T00:35:22;18.63;;;14.20;;
13999;SDS011;7075;53.574;10.054;2022-10-31T00:37:48;15.05;;;13.45;;
13999;SDS011;7075;53.574;10.054;2022-10-31T00:40:13;16.40;;;13.03;;
13999;SDS011;7075;53.574;10.054;2022-10-31T00:42:39;17.43;;;13.73;;
13999;SDS011;7075;53.574;10.054;2022-10-31T00:45:06;16.73;;;13.63;;
13999;SDS011;7075;53.574;10.054;2022-10-31T00:47:35;17.25;;;13.90;;
13999;SDS011;7075;53.574;10.054;2022-10-31T00:50:01;18.02;;;13.88;;
13999;SDS011;7075;53.574;10.054;2022-10-31T00:52:28;14.35;;;12.85;;
13999;SDS011;7075;53.574;10.054;2022-10-31T00:54:53;17.48;;;13.85;;
13999;SDS011;7075;53.574;10.054;2022-10-31T00:57:19;15.90;;;13.87;;
13999;SDS011;7075;53.574;10.054;2022-10-31T00:59:44;17.65;;;13.18;;
13999;SDS011;7075;53.574;10.054;2022-10-31T01:02:10;18.53;;;14.27;;
13999;SDS011;7075;53.574;10.054;2022-10-31T01:04:35;16.83;;;13.80;;
13999;SDS011;7075;53.574;10.054;2022-10-31T01:07:01;15.95;;;12.98;;
13999;SDS011;7075;53.574;10.054;2022-10-31T01:09:26;17.07;;;13.50;;
13999;SDS011;7075;53.574;10.054;2022-10-31T01:11:52;17.02;;;12.90;;
13999;SDS011;7075;53.574;10.054;2022-10-31T01:14:17;19.13;;;13.77;;
13999;SDS011;7075;53.574;10.054;2022-10-31T01:16:43;17.52;;;13.75;;
13999;SDS011;7075;53.574;10.054;2022-10-31T01:19:08;18.73;;;14.50;;
13999;SDS011;7075;53.574;10.054;2022-10-31T01:21:33;22.25;;;14.63;;
13999;SDS011;7075;53.574;10.054;2022-10-31T01:23:59;18.87;;;15.10;;
13999;SDS011;7075;53.574;10.054;2022-10-31T01:26:28;24.95;;;17.10;;
13999;SDS011;7075;53.574;10.054;2022-10-31T01:31:23;20.10;;;15.53;;
13999;SDS011;7075;53.574;10.054;2022-10-31T01:33:51;26.25;;;18.27;;
13999;SDS011;7075;53.574;10.054;2022-10-31T01:36:18;23.80;;;17.15;;
13999;SDS011;7075;53.574;10.054;2022-10-31T01:38:50;24.15;;;17.42;;
13999;SDS011;7075;53.574;10.054;2022-10-31T01:41:18;27.52;;;18.85;;
13999;SDS011;7075;53.574;10.054;2022-10-31T01:46:15;28.33;;;21.58;;
13999;SDS011;7075;53.574;10.054;2022-10-31T01:48:44;31.27;;;20.45;;
13999;SDS011;7075;53.574;10.054;2022-10-31T01:51:10;28.35;;;19.40;;
13999;SDS011;7075;53.574;10.054;2022-10-31T01:53:39;26.67;;;20.70;;
13999;SDS011;7075;53.574;10.054;2022-10-31T01:56:06;21.77;;;17.85;;
13999;SDS011;7075;53.574;10.054;2022-10-31T01:58:33;31.58;;;20.77;;
13999;SDS011;7075;53.574;10.054;2022-10-31T02:00:59;23.73;;;18.42;;
13999;SDS011;7075;53.574;10.054;2022-10-31T02:03:25;26.63;;;19.75;;
13999;SDS011;7075;53.574;10.054;2022-10-31T02:05:53;28.07;;;20.33;;
13999;SDS011;7075;53.574;10.054;2022-10-31T02:10:51;23.05;;;18.52;;
13999;SDS011;7075;53.574;10.054;2022-10-31T02:13:17;25.60;;;19.23;;
13999;SDS011;7075;53.574;10.054;2022-10-31T02:15:45;28.35;;;22.02;;
13999;SDS011;7075;53.574;10.054;2022-10-31T02:18:14;31.88;;;22.40;;
13999;SDS011;7075;53.574;10.054;2022-10-31T02:20:42;23.57;;;18.83;;
13999;SDS011;7075;53.574;10.054;2022-10-31T02:23:41;28.88;;;20.30;;
13999;SDS011;7075;53.574;10.054;2022-10-31T02:26:31;27.33;;;19.63;;
13999;SDS011;7075;53.574;10.054;2022-10-31T02:29:23;22.45;;;18.05;;
13999;SDS011;7075;53.574;10.054;2022-10-31T02:32:08;30.85;;;22.98;;
13999;SDS011;7075;53.574;10.054;2022-10-31T02:34:52;22.15;;;18.13;;
13999;SDS011;7075;53.574;10.054;2022-10-31T02:37:34;33.27;;;21.80;;
13999;SDS011;7075;53.574;10.054;2022-10-31T02:40:17;27.63;;;20.00;;
13999;SDS011;7075;53.574;10.054;2022-10-31T02:48:19;23.00;;;18.00;;
13999;SDS011;7075;53.574;10.054;2022-10-31T02:50:50;22.90;;;17.67;;
13999;SDS011;7075;53.574;10.054;2022-10-31T02:53:20;23.95;;;18.30;;
13999;SDS011;7075;53.574;10.054;2022-10-31T02:55:50;23.97;;;19.03;;
13999;SDS011;7075;53.574;10.054;2022-10-31T02:58:36;25.08;;;19.60;;
13999;SDS011;7075;53.574;10.054;2022-10-31T03:06:12;26.25;;;20.67;;
13999;SDS011;7075;53.574;10.054;2022-10-31T03:09:07;23.30;;;18.45;;
13999;SDS011;7075;53.574;10.054;2022-10-31T03:11:48;24.17;;;18.92;;
13999;SDS011;7075;53.574;10.054;2022-10-31T03:14:41;22.33;;;17.85;;
13999;SDS011;7075;53.574;10.054;2022-10-31T03:17:21;23.83;;;18.10;;
13999;SDS011;7075;53.574;10.054;2022-10-31T03:20:00;28.15;;;20.25;;
13999;SDS011;7075;53.574;10.054;2022-10-31T03:22:28;22.73;;;18.33;;
13999;SDS011;7075;53.574;10.054;2022-10-31T03:24:55;21.15;;;17.23;;
13999;SDS011;7075;53.574;10.054;2022-10-31T03:27:26;23.23;;;16.95;;
13999;SDS011;7075;53.574;10.054;2022-10-31T03:29:56;24.92;;;17.85;;
13999;SDS011;7075;53.574;10.054;2022-10-31T03:32:26;21.85;;;17.40;;
13999;SDS011;7075;53.574;10.054;2022-10-31T03:34:57;21.00;;;16.70;;
13999;SDS011;7075;53.574;10.054;2022-10-31T03:37:24;24.83;;;18.15;;
13999;SDS011;7075;53.574;10.054;2022-10-31T03:39:52;20.85;;;17.27;;
13999;SDS011;7075;53.574;10.054;2022-10-31T03:42:21;26.73;;;19.60;;
13999;SDS011;7075;53.574;10.054;2022-10-31T03:44:54;23.90;;;17.83;;
13999;SDS011;7075;53.574;10.054;2022-10-31T03:47:22;24.38;;;19.20;;
13999;SDS011;7075;53.574;10.054;2022-10-31T03:49:48;22.65;;;17.77;;
13999;SDS011;7075;53.574;10.054;2022-10-31T03:52:19;20.42;;;16.92;;
13999;SDS011;7075;53.574;10.054;2022-10-31T03:54:59;20.73;;;17.30;;
13999;SDS011;7075;53.574;10.054;2022-10-31T03:58:02;28.00;;;20.20;;
13999;SDS011;7075;53.574;10.054;2022-10-31T04:00:32;25.15;;;18.95;;
13999;SDS011;7075;53.574;10.054;2022-10-31T04:03:07;23.23;;;17.40;;
13999;SDS011;7075;53.574;10.054;2022-10-31T04:09:00;22.45;;;17.65;;
13999;SDS011;7075;53.574;10.054;2022-10-31T04:11:30;22.97;;;18.87;;
13999;SDS011;7075;53.574;10.054;2022-10-31T04:13:58;24.50;;;18.52;;
13999;SDS011;7075;53.574;10.054;2022-10-31T04:16:26;28.10;;;22.65;;
13999;SDS011;7075;53.574;10.054;2022-10-31T04:18:52;23.80;;;18.67;;
13999;SDS011;7075;53.574;10.054;2022-10-31T04:21:18;26.00;;;19.63;;
13999;SDS011;7075;53.574;10.054;2022-10-31T04:23:43;28.98;;;20.52;;
13999;SDS011;7075;53.574;10.054;2022-10-31T04:26:12;30.47;;;20.23;;
13999;SDS011;7075;53.574;10.054;2022-10-31T04:28:38;25.50;;;19.87;;
13999;SDS011;7075;53.574;10.054;2022-10-31T04:31:04;24.60;;;19.43;;
13999;SDS011;7075;53.574;10.054;2022-10-31T04:33:29;23.47;;;17.37;;
13999;SDS011;7075;53.574;10.054;2022-10-31T04:35:55;21.88;;;17.98;;
13999;SDS011;7075;53.574;10.054;2022-10-31T04:38:20;21.80;;;18.23;;
13999;SDS011;7075;53.574;10.054;2022-10-31T04:40:46;24.98;;;18.95;;
13999;SDS011;7075;53.574;10.054;2022-10-31T04:43:11;26.37;;;19.17;;
13999;SDS011;7075;53.574;10.054;2022-10-31T04:45:37;27.23;;;20.13;;
13999;SDS011;7075;53.574;10.054;2022-10-31T04:48:03;28.02;;;19.65;;
13999;SDS011;7075;53.574;10.054;2022-10-31T04:50:28;28.00;;;20.00;;
13999;SDS011;7075;53.574;10.054;2022-10-31T04:52:54;23.53;;;17.73;;
13999;SDS011;7075;53.574;10.054;2022-10-31T04:55:19;30.37;;;22.07;;
13999;SDS011;7075;53.574;10.054;2022-10-31T04:57:46;24.40;;;19.20;;
13999;SDS011;7075;53.574;10.054;2022-10-31T05:00:13;28.55;;;20.27;;
13999;SDS011;7075;53.574;10.054;2022-10-31T05:02:44;25.63;;;19.58;;
13999;SDS011;7075;53.574;10.054;2022-10-31T05:05:11;27.67;;;21.20;;
13999;SDS011;7075;53.574;10.054;2022-10-31T05:07:42;34.22;;;23.30;;
13999;SDS011;7075;53.574;10.054;2022-10-31T05:10:09;29.30;;;21.33;;
13999;SDS011;7075;53.574;10.054;2022-10-31T05:12:36;29.50;;;21.50;;
13999;SDS011;7075;53.574;10.054;2022-10-31T05:15:03;24.92;;;19.95;;
13999;SDS011;7075;53.574;10.054;2022-10-31T05:17:30;24.63;;;18.77;;
13999;SDS011;7075;53.574;10.054;2022-10-31T05:19:56;22.77;;;18.45;;
13999;SDS011;7075;53.574;10.054;2022-10-31T05:22:21;28.97;;;21.07;;
13999;SDS011;7075;53.574;10.054;2022-10-31T05:24:47;30.13;;;22.63;;
13999;SDS011;7075;53.574;10.054;2022-10-31T05:27:12;26.00;;;20.05;;
13999;SDS011;7075;53.574;10.054;2022-10-31T05:29:38;28.47;;;21.13;;
13999;SDS011;7075;53.574;10.054;2022-10-31T05:32:03;24.48;;;18.88;;
13999;SDS011;7075;53.574;10.054;2022-10-31T05:34:29;27.43;;;21.30;;
13999;SDS011;7075;53.574;10.054;2022-10-31T05:36:54;25.93;;;19.80;;
13999;SDS011;7075;53.574;10.054;2022-10-31T05:39:19;24.57;;;19.40;;
13999;SDS011;7075;53.574;10.054;2022-10-31T05:41:45;26.00;;;20.93;;
13999;SDS011;7075;53.574;10.054;2022-10-31T05:44:10;27.80;;;22.17;;
13999;SDS011;7075;53.574;10.054;2022-10-31T05:46:36;26.83;;;19.77;;
13999;SDS011;7075;53.574;10.054;2022-10-31T05:49:01;25.08;;;20.45;;
13999;SDS011;7075;53.574;10.054;2022-10-31T05:51:27;28.27;;;21.20;;
13999;SDS011;7075;53.574;10.054;2022-10-31T05:53:53;29.30;;;21.00;;
13999;SDS011;7075;53.574;10.054;2022-10-31T05:56:18;30.93;;;21.70;;
13999;SDS011;7075;53.574;10.054;2022-10-31T05:58:43;28.93;;;23.10;;
13999;SDS011;7075;53.574;10.054;2022-10-31T06:01:09;25.50;;;20.58;;
13999;SDS011;7075;53.574;10.054;2022-10-31T06:03:34;26.30;;;20.50;;
13999;SDS011;7075;53.574;10.054;2022-10-31T06:06:00;32.08;;;22.73;;
13999;SDS011;7075;53.574;10.054;2022-10-31T06:08:25;25.43;;;20.37;;
13999;SDS011;7075;53.574;10.054;2022-10-31T06:10:52;33.63;;;23.67;;
13999;SDS011;7075;53.574;10.054;2022-10-31T06:13:18;27.15;;;20.02;;
13999;SDS011;7075;53.574;10.054;2022-10-31T06:15:44;39.28;;;26.17;;
13999;SDS011;7075;53.574;10.054;2022-10-31T06:18:09;36.20;;;24.67;;
13999;SDS011;7075;53.574;10.054;2022-10-31T06:20:35;36.90;;;24.23;;
13999;SDS011;7075;53.574;10.054;2022-10-31T06:23:01;31.73;;;22.58;;
13999;SDS011;7075;53.574;10.054;2022-10-31T06:25:27;33.87;;;23.57;;
13999;SDS011;7075;53.574;10.054;2022-10-31T06:27:53;33.10;;;22.67;;
13999;SDS011;7075;53.574;10.054;2022-10-31T06:30:19;31.02;;;23.77;;
13999;SDS011;7075;53.574;10.054;2022-10-31T06:32:44;29.20;;;21.55;;
13999;SDS011;7075;53.574;10.054;2022-10-31T06:35:10;32.77;;;24.40;;
13999;SDS011;7075;53.574;10.054;2022-10-31T06:37:36;32.13;;;23.33;;
13999;SDS011;7075;53.574;10.054;2022-10-31T06:40:02;27.60;;;21.05;;
13999;SDS011;7075;53.574;10.054;2022-10-31T06:42:27;23.50;;;18.60;;
13999;SDS011;7075;53.574;10.054;2022-10-31T06:44:53;27.63;;;19.58;;
13999;SDS011;7075;53.574;10.054;2022-10-31T06:47:18;28.20;;;22.27;;
13999;SDS011;7075;53.574;10.054;2022-10-31T06:49:43;29.92;;;21.65;;
13999;SDS011;7075;53.574;10.054;2022-10-31T06:52:09;29.70;;;21.03;;
13999;SDS011;7075;53.574;10.054;2022-10-31T06:54:35;22.33;;;18.17;;
13999;SDS011;7075;53.574;10.054;2022-10-31T06:57:00;26.55;;;19.63;;
13999;SDS011;7075;53.574;10.054;2022-10-31T06:59:26;25.97;;;20.90;;
13999;SDS011;7075;53.574;10.054;2022-10-31T07:01:51;26.42;;;19.90;;
13999;SDS011;7075;53.574;10.054;2022-10-31T07:04:17;28.10;;;21.23;;
13999;SDS011;7075;53.574;10.054;2022-10-31T07:06:42;28.95;;;22.17;;
13999;SDS011;7075;53.574;10.054;2022-10-31T07:09:08;25.38;;;19.40;;
13999;SDS011;7075;53.574;10.054;2022-10-31T07:11:33;25.10;;;19.37;;
13999;SDS011;7075;53.574;10.054;2022-10-31T07:13:59;32.63;;;21.50;;
13999;SDS011;7075;53.574;10.054;2022-10-31T07:16:24;34.10;;;25.90;;
13999;SDS011;7075;53.574;10.054;2022-10-31T07:18:50;40.33;;;26.60;;
13999;SDS011;7075;53.574;10.054;2022-10-31T07:21:15;35.07;;;24.83;;
13999;SDS011;7075;53.574;10.054;2022-10-31T07:23:41;39.57;;;25.23;;
13999;SDS011;7075;53.574;10.054;2022-10-31T07:26:07;34.13;;;25.25;;
13999;SDS011;7075;53.574;10.054;2022-10-31T07:28:34;35.85;;;24.90;;
13999;SDS011;7075;53.574;10.054;2022-10-31T07:31:00;28.45;;;22.17;;
13999;SDS011;7075;53.574;10.054;2022-10-31T07:33:25;31.77;;;22.05;;
13999;SDS011;7075;53.574;10.054;2022-10-31T07:35:51;31.50;;;21.60;;
13999;SDS011;7075;53.574;10.054;2022-10-31T07:38:17;27.00;;;19.70;;
13999;SDS011;7075;53.574;10.054;2022-10-31T07:40:42;33.17;;;20.77;;
13999;SDS011;7075;53.574;10.054;2022-10-31T07:43:08;25.88;;;19.20;;
13999;SDS011;7075;53.574;10.054;2022-10-31T07:45:36;25.23;;;18.30;;
13999;SDS011;7075;53.574;10.054;2022-10-31T07:48:01;29.40;;;18.97;;
13999;SDS011;7075;53.574;10.054;2022-10-31T07:50:29;24.63;;;18.58;;
13999;SDS011;7075;53.574;10.054;2022-10-31T07:53:02;24.40;;;18.40;;
13999;SDS011;7075;53.574;10.054;2022-10-31T07:55:30;25.80;;;19.63;;
13999;SDS011;7075;53.574;10.054;2022-10-31T07:57:59;23.67;;;17.30;;
13999;SDS011;7075;53.574;10.054;2022-10-31T08:00:25;22.98;;;18.05;;
13999;SDS011;7075;53.574;10.054;2022-10-31T08:02:58;20.27;;;15.73;;
13999;SDS011;7075;53.574;10.054;2022-10-31T08:05:29;21.67;;;17.30;;
13999;SDS011;7075;53.574;10.054;2022-10-31T08:07:55;22.10;;;15.93;;
13999;SDS011;7075;53.574;10.054;2022-10-31T08:10:21;20.30;;;16.83;;
13999;SDS011;7075;53.574;10.054;2022-10-31T08:12:47;21.47;;;16.63;;
13999;SDS011;7075;53.574;10.054;2022-10-31T08:15:19;18.23;;;15.45;;
13999;SDS011;7075;53.574;10.054;2022-10-31T08:17:44;14.87;;;13.20;;
13999;SDS011;7075;53.574;10.054;2022-10-31T08:20:10;20.67;;;15.80;;
13999;SDS011;7075;53.574;10.054;2022-10-31T08:22:35;18.55;;;14.32;;
13999;SDS011;7075;53.574;10.054;2022-10-31T08:25:04;19.33;;;15.23;;
13999;SDS011;7075;53.574;10.054;2022-10-31T08:27:30;18.23;;;13.82;;
13999;SDS011;7075;53.574;10.054;2022-10-31T08:29:55;20.80;;;15.77;;
13999;SDS011;7075;53.574;10.054;2022-10-31T08:32:21;18.43;;;15.07;;
13999;SDS011;7075;53.574;10.054;2022-10-31T08:34:46;22.67;;;17.40;;
13999;SDS011;7075;53.574;10.054;2022-10-31T08:37:12;21.80;;;15.83;;
13999;SDS011;7075;53.574;10.054;2022-10-31T08:39:37;19.70;;;16.30;;
13999;SDS011;7075;53.574;10.054;2022-10-31T08:42:03;18.97;;;16.33;;
13999;SDS011;7075;53.574;10.054;2022-10-31T08:44:31;18.57;;;14.50;;
13999;SDS011;7075;53.574;10.054;2022-10-31T08:46:57;16.77;;;13.93;;
13999;SDS011;7075;53.574;10.054;2022-10-31T08:49:22;19.20;;;15.40;;
13999;SDS011;7075;53.574;10.054;2022-10-31T08:51:48;17.13;;;14.57;;
13999;SDS011;7075;53.574;10.054;2022-10-31T08:54:13;14.53;;;13.00;;
13999;SDS011;7075;53.574;10.054;2022-10-31T08:56:39;13.23;;;11.82;;
13999;SDS011;7075;53.574;10.054;2022-10-31T08:59:04;14.93;;;12.80;;
13999;SDS011;7075;53.574;10.054;2022-10-31T09:01:30;14.88;;;13.32;;
13999;SDS011;7075;53.574;10.054;2022-10-31T09:03:55;14.75;;;12.88;;
13999;SDS011;7075;53.574;10.054;2022-10-31T09:09:05;15.80;;;14.10;;
13999;SDS011;7075;53.574;10.054;2022-10-31T09:11:34;18.00;;;15.33;;
13999;SDS011;7075;53.574;10.054;2022-10-31T09:13:59;16.30;;;13.02;;
13999;SDS011;7075;53.574;10.054;2022-10-31T09:19:12;21.40;;;16.92;;
13999;SDS011;7075;53.574;10.054;2022-10-31T09:21:37;24.17;;;17.70;;
13999;SDS011;7075;53.574;10.054;2022-10-31T09:24:03;21.02;;;17.92;;
13999;SDS011;7075;53.574;10.054;2022-10-31T09:26:29;19.75;;;16.05;;
13999;SDS011;7075;53.574;10.054;2022-10-31T09:28:55;17.95;;;15.07;;
13999;SDS011;7075;53.574;10.054;2022-10-31T09:31:22;17.67;;;14.73;;
13999;SDS011;7075;53.574;10.054;2022-10-31T09:33:48;24.63;;;20.02;;
13999;SDS011;7075;53.574;10.054;2022-10-31T09:36:13;23.17;;;18.17;;
13999;SDS011;7075;53.574;10.054;2022-10-31T09:38:39;21.40;;;17.45;;
13999;SDS011;7075;53.574;10.054;2022-10-31T09:41:23;17.23;;;15.43;;
13999;SDS011;7075;53.574;10.054;2022-10-31T09:44:01;13.80;;;12.40;;
13999;SDS011;7075;53.574;10.054;2022-10-31T09:52:14;22.90;;;18.00;;
13999;SDS011;7075;53.574;10.054;2022-10-31T09:57:44;24.08;;;20.60;;
13999;SDS011;7075;53.574;10.054;2022-10-31T10:00:18;25.27;;;18.40;;
13999;SDS011;7075;53.574;10.054;2022-10-31T10:05:33;17.75;;;15.68;;
13999;SDS011;7075;53.574;10.054;2022-10-31T10:16:47;16.58;;;13.85;;
13999;SDS011;7075;53.574;10.054;2022-10-31T10:19:38;17.75;;;15.95;;
13999;SDS011;7075;53.574;10.054;2022-10-31T10:22:21;16.20;;;14.43;;
13999;SDS011;7075;53.574;10.054;2022-10-31T10:28:27;25.38;;;22.42;;
13999;SDS011;7075;53.574;10.054;2022-10-31T10:42:21;16.60;;;15.03;;
13999;SDS011;7075;53.574;10.054;2022-10-31T10:45:17;16.60;;;15.05;;
13999;SDS011;7075;53.574;10.054;2022-10-31T10:50:56;17.88;;;15.98;;
13999;SDS011;7075;53.574;10.054;2022-10-31T10:53:34;17.30;;;15.70;;
13999;SDS011;7075;53.574;10.054;2022-10-31T10:59:09;17.80;;;16.15;;
13999;SDS011;7075;53.574;10.054;2022-10-31T11:01:39;15.48;;;14.05;;
13999;SDS011;7075;53.574;10.054;2022-10-31T11:06:57;20.27;;;18.17;;
13999;SDS011;7075;53.574;10.054;2022-10-31T11:09:26;18.33;;;16.50;;
13999;SDS011;7075;53.574;10.054;2022-10-31T11:11:57;19.13;;;17.15;;
13999;SDS011;7075;53.574;10.054;2022-10-31T11:14:24;19.00;;;17.00;;
13999;SDS011;7075;53.574;10.054;2022-10-31T11:16:56;19.88;;;17.42;;
13999;SDS011;7075;53.574;10.054;2022-10-31T11:19:34;22.10;;;19.80;;
13999;SDS011;7075;53.574;10.054;2022-10-31T11:22:07;22.73;;;20.33;;
13999;SDS011;7075;53.574;10.054;2022-10-31T11:24:40;25.80;;;23.20;;
13999;SDS011;7075;53.574;10.054;2022-10-31T11:27:19;23.58;;;21.05;;
13999;SDS011;7075;53.574;10.054;2022-10-31T11:29:49;24.20;;;21.80;;
13999;SDS011;7075;53.574;10.054;2022-10-31T11:32:19;20.23;;;18.33;;
13999;SDS011;7075;53.574;10.054;2022-10-31T11:34:54;25.88;;;23.42;;
13999;SDS011;7075;53.574;10.054;2022-10-31T11:37:35;26.42;;;23.85;;
13999;SDS011;7075;53.574;10.054;2022-10-31T11:40:14;27.35;;;24.70;;
13999;SDS011;7075;53.574;10.054;2022-10-31T11:42:42;28.48;;;24.98;;
13999;SDS011;7075;53.574;10.054;2022-10-31T11:45:15;28.45;;;25.42;;
13999;SDS011;7075;53.574;10.054;2022-10-31T11:47:55;27.45;;;23.77;;
13999;SDS011;7075;53.574;10.054;2022-10-31T11:50:34;25.70;;;23.02;;
13999;SDS011;7075;53.574;10.054;2022-10-31T11:53:03;20.75;;;18.65;;
13999;SDS011;7075;53.574;10.054;2022-10-31T11:55:38;36.33;;;32.80;;
13999;SDS011;7075;53.574;10.054;2022-10-31T11:58:04;28.10;;;25.52;;
13999;SDS011;7075;53.574;10.054;2022-10-31T12:00:50;30.35;;;27.52;;
13999;SDS011;7075;53.574;10.054;2022-10-31T12:03:26;29.95;;;27.63;;
13999;SDS011;7075;53.574;10.054;2022-10-31T12:08:43;32.85;;;29.50;;
13999;SDS011;7075;53.574;10.054;2022-10-31T12:17:13;29.67;;;27.03;;
13999;SDS011;7075;53.574;10.054;2022-10-31T12:23:06;36.37;;;32.80;;
13999;SDS011;7075;53.574;10.054;2022-10-31T12:31:26;31.55;;;28.58;;
13999;SDS011;7075;53.574;10.054;2022-10-31T12:34:15;33.42;;;30.27;;
13999;SDS011;7075;53.574;10.054;2022-10-31T12:36:51;34.85;;;31.60;;
13999;SDS011;7075;53.574;10.054;2022-10-31T12:39:24;31.35;;;28.38;;
13999;SDS011;7075;53.574;10.054;2022-10-31T12:42:09;30.48;;;27.55;;
13999;SDS011;7075;53.574;10.054;2022-10-31T12:44:59;31.30;;;28.23;;
13999;SDS011;7075;53.574;10.054;2022-10-31T12:50:31;27.58;;;25.08;;
13999;SDS011;7075;53.574;10.054;2022-10-31T12:53:31;30.38;;;27.38;;
13999;SDS011;7075;53.574;10.054;2022-10-31T12:59:22;31.20;;;28.20;;
13999;SDS011;7075;53.574;10.054;2022-10-31T13:02:02;26.90;;;24.30;;
13999;SDS011;7075;53.574;10.054;2022-10-31T13:04:51;25.30;;;23.00;;
13999;SDS011;7075;53.574;10.054;2022-10-31T13:07:57;26.00;;;23.52;;
13999;SDS011;7075;53.574;10.054;2022-10-31T13:10:50;27.58;;;24.90;;
13999;SDS011;7075;53.574;10.054;2022-10-31T13:13:25;22.88;;;20.80;;
13999;SDS011;7075;53.574;10.054;2022-10-31T13:16:00;23.17;;;21.15;;
13999;SDS011;7075;53.574;10.054;2022-10-31T13:18:40;28.73;;;25.98;;
13999;SDS011;7075;53.574;10.054;2022-10-31T13:21:09;30.63;;;27.58;;
13999;SDS011;7075;53.574;10.054;2022-10-31T13:23:44;32.20;;;29.13;;
13999;SDS011;7075;53.574;10.054;2022-10-31T13:26:14;30.08;;;27.17;;
13999;SDS011;7075;53.574;10.054;2022-10-31T13:31:41;26.42;;;23.90;;
13999;SDS011;7075;53.574;10.054;2022-10-31T13:34:19;26.10;;;23.58;;
13999;SDS011;7075;53.574;10.054;2022-10-31T13:37:17;24.77;;;22.30;;
13999;SDS011;7075;53.574;10.054;2022-10-31T13:40:11;20.67;;;18.67;;
13999;SDS011;7075;53.574;10.054;2022-10-31T13:43:02;22.05;;;20.15;;
13999;SDS011;7075;53.574;10.054;2022-10-31T13:45:50;21.40;;;19.70;;
13999;SDS011;7075;53.574;10.054;2022-10-31T13:48:19;22.57;;;20.87;;
13999;SDS011;7075;53.574;10.054;2022-10-31T13:50:58;26.10;;;24.20;;
13999;SDS011;7075;53.574;10.054;2022-10-31T13:56:31;28.30;;;26.45;;
13999;SDS011;7075;53.574;10.054;2022-10-31T14:01:44;31.45;;;29.35;;
13999;SDS011;7075;53.574;10.054;2022-10-31T14:04:20;39.05;;;36.60;;
13999;SDS011;7075;53.574;10.054;2022-10-31T14:09:59;35.95;;;33.72;;
13999;SDS011;7075;53.574;10.054;2022-10-31T14:12:33;36.88;;;34.53;;
13999;SDS011;7075;53.574;10.054;2022-10-31T14:18:05;31.05;;;29.05;;
13999;SDS011;7075;53.574;10.054;2022-10-31T14:23:13;35.38;;;32.78;;
13999;SDS011;7075;53.574;10.054;2022-10-31T14:40:20;36.83;;;33.83;;
13999;SDS011;7075;53.574;10.054;2022-10-31T14:51:16;32.83;;;30.17;;
13999;SDS011;7075;53.574;10.054;2022-10-31T14:53:54;26.73;;;24.77;;
13999;SDS011;7075;53.574;10.054;2022-10-31T14:56:24;29.30;;;27.10;;
13999;SDS011;7075;53.574;10.054;2022-10-31T14:58:59;26.67;;;24.67;;
13999;SDS011;7075;53.574;10.054;2022-10-31T15:01:34;25.95;;;23.77;;
13999;SDS011;7075;53.574;10.054;2022-10-31T15:04:15;26.70;;;24.40;;
13999;SDS011;7075;53.574;10.054;2022-10-31T15:10:02;30.25;;;27.75;;
13999;SDS011;7075;53.574;10.054;2022-10-31T15:12:54;28.80;;;26.50;;
13999;SDS011;7075;53.574;10.054;2022-10-31T15:17:48;26.38;;;24.17;;
13999;SDS011;7075;53.574;10.054;2022-10-31T15:20:19;28.38;;;26.05;;
13999;SDS011;7075;53.574;10.054;2022-10-31T15:22:48;25.00;;;22.70;;
13999;SDS011;7075;53.574;10.054;2022-10-31T15:25:18;24.38;;;22.30;;
13999;SDS011;7075;53.574;10.054;2022-10-31T15:27:46;27.95;;;25.63;;
13999;SDS011;7075;53.574;10.054;2022-10-31T15:30:20;26.23;;;23.73;;
13999;SDS011;7075;53.574;10.054;2022-10-31T15:32:48;26.20;;;23.92;;
13999;SDS011;7075;53.574;10.054;2022-10-31T15:35:27;29.40;;;26.90;;
13999;SDS011;7075;53.574;10.054;2022-10-31T15:37:58;25.77;;;23.55;;
13999;SDS011;7075;53.574;10.054;2022-10-31T15:40:32;27.77;;;25.33;;
13999;SDS011;7075;53.574;10.054;2022-10-31T15:42:59;26.55;;;24.25;;
13999;SDS011;7075;53.574;10.054;2022-10-31T15:45:28;27.13;;;24.67;;
13999;SDS011;7075;53.574;10.054;2022-10-31T15:47:59;24.92;;;22.73;;
13999;SDS011;7075;53.574;10.054;2022-10-31T15:50:29;24.13;;;21.92;;
13999;SDS011;7075;53.574;10.054;2022-10-31T15:53:05;24.90;;;22.65;;
13999;SDS011;7075;53.574;10.054;2022-10-31T15:58:53;24.65;;;22.48;;
13999;SDS011;7075;53.574;10.054;2022-10-31T16:03:56;23.83;;;21.50;;
13999;SDS011;7075;53.574;10.054;2022-10-31T16:06:38;22.48;;;20.38;;
13999;SDS011;7075;53.574;10.054;2022-10-31T16:09:17;21.17;;;19.13;;
13999;SDS011;7075;53.574;10.054;2022-10-31T16:11:48;24.05;;;21.98;;
13999;SDS011;7075;53.574;10.054;2022-10-31T16:14:18;25.02;;;22.58;;
13999;SDS011;7075;53.574;10.054;2022-10-31T16:16:51;22.90;;;20.77;;
13999;SDS011;7075;53.574;10.054;2022-10-31T16:21:53;25.08;;;22.52;;
13999;SDS011;7075;53.574;10.054;2022-10-31T16:24:32;24.25;;;21.70;;
13999;SDS011;7075;53.574;10.054;2022-10-31T16:27:47;24.90;;;22.15;;
13999;SDS011;7075;53.574;10.054;2022-10-31T16:30:24;24.40;;;21.83;;
13999;SDS011;7075;53.574;10.054;2022-10-31T16:32:53;22.80;;;20.40;;
13999;SDS011;7075;53.574;10.054;2022-10-31T16:35:25;23.10;;;20.80;;
13999;SDS011;7075;53.574;10.054;2022-10-31T16:38:04;23.67;;;21.27;;
13999;SDS011;7075;53.574;10.054;2022-10-31T16:40:30;30.48;;;27.63;;
13999;SDS011;7075;53.574;10.054;2022-10-31T16:42:57;23.08;;;20.65;;
13999;SDS011;7075;53.574;10.054;2022-10-31T16:45:26;26.80;;;24.10;;
13999;SDS011;7075;53.574;10.054;2022-10-31T16:47:54;29.42;;;26.83;;
13999;SDS011;7075;53.574;10.054;2022-10-31T16:50:32;23.95;;;21.45;;
13999;SDS011;7075;53.574;10.054;2022-10-31T16:52:57;26.93;;;24.03;;
13999;SDS011;7075;53.574;10.054;2022-10-31T16:55:23;25.77;;;23.07;;
13999;SDS011;7075;53.574;10.054;2022-10-31T16:57:50;28.98;;;26.13;;
13999;SDS011;7075;53.574;10.054;2022-10-31T17:00:18;27.27;;;24.60;;
13999;SDS011;7075;53.574;10.054;2022-10-31T17:02:47;23.83;;;21.50;;
13999;SDS011;7075;53.574;10.054;2022-10-31T17:05:15;22.08;;;19.88;;
13999;SDS011;7075;53.574;10.054;2022-10-31T17:07:42;23.17;;;20.77;;
13999;SDS011;7075;53.574;10.054;2022-10-31T17:10:13;20.95;;;18.85;;
13999;SDS011;7075;53.574;10.054;2022-10-31T17:12:40;22.95;;;19.42;;